Time;durP1;ratioP1;P1;durP2;ratioP2;P2;SDS_P1;SDS_P2;PMS_P1;PMS_P2;Temp;Humidity;BMP_temperature;BMP_pressure;BME280_temperature;BME280_humidity;BME280_pressure;Samples;Min_cycle;Max_cycle;Signal;HPM_P1;HPM_P2
2022/06/06 00:01:19;;;;;;;24.20;8.70;;;;;;;15.91;100.00;99768.05;1678644;85;21544;-75
2022/06/06 00:03:48;;;;;;;16.75;6.25;;;;;;;15.91;100.00;99766.15;1678579;85;21062;-74
2022/06/06 00:06:19;;;;;;;11.68;5.20;;;;;;;15.92;100.00;99762.92;1678378;85;21083;-74
2022/06/06 00:08:48;;;;;;;;;;;;;;;15.90;100.00;99757.67;1681903;85;21000;-75
2022/06/06 00:11:15;;;;;;;9.28;4.33;;;;;;;15.89;100.00;99771.52;1679302;85;20120;-73
2022/06/06 00:13:45;;;;;;;9.38;4.37;;;;;;;15.86;100.00;99771.94;1656873;85;21491;-75
2022/06/06 00:16:12;;;;;;;11.45;5.12;;;;;;;15.83;100.00;99773.71;1679880;85;21043;-74
2022/06/06 00:18:39;;;;;;;12.47;5.37;;;;;;;15.78;100.00;99774.36;1681963;85;20997;-74
2022/06/06 00:21:07;;;;;;;9.63;4.78;;;;;;;15.73;100.00;99777.69;1681212;85;21012;-74
2022/06/06 00:23:36;;;;;;;7.22;3.80;;;;;;;15.70;100.00;99777.27;1679422;84;21040;-75
2022/06/06 00:26:09;;;;;;;5.75;3.75;;;;;;;15.67;100.00;99775.81;1679563;85;21527;-74
2022/06/06 00:28:36;;;;;;;4.60;3.40;;;;;;;15.66;100.00;99773.30;1600988;89;21059;-74
2022/06/06 00:36:34;;;;;;;9.08;4.45;;;;;;;15.56;100.00;99770.48;1600803;90;21659;-75
2022/06/06 00:39:02;;;;;;;7.75;4.05;;;;;;;15.55;100.00;99781.59;1595867;90;21033;-74
2022/06/06 00:41:29;;;;;;;6.12;3.60;;;;;;;15.51;100.00;99770.27;1586819;90;21029;-75
2022/06/06 00:44:15;;;;;;;5.72;3.52;;;;;;;15.47;100.00;99774.44;1586696;90;21045;-74
2022/06/06 00:47:08;;;;;;;8.48;4.65;;;;;;;15.44;100.00;99779.47;1590204;90;21047;-75
2022/06/06 00:49:42;;;;;;;8.05;3.50;;;;;;;15.41;100.00;99778.55;1600869;90;21668;-73
2022/06/06 00:52:15;;;;;;;10.20;5.35;;;;;;;15.37;100.00;99776.23;1601068;90;21085;-75
2022/06/06 00:54:42;;;;;;;31.50;16.80;;;;;;;15.36;100.00;99773.72;1511044;94;21055;-75
2022/06/06 00:57:14;;;;;;;25.08;12.05;;;;;;;15.34;100.00;99773.09;1496457;96;21139;-75
2022/06/06 00:59:41;;;;;;;14.90;6.67;;;;;;;15.31;100.00;99777.05;1492694;94;21087;-74
2022/06/06 01:02:09;;;;;;;10.95;4.90;;;;;;;15.28;100.00;99771.19;1467950;96;21569;-75
2022/06/06 01:04:38;;;;;;;14.05;6.20;;;;;;;15.26;100.00;99764.58;1492432;95;21148;-75
2022/06/06 01:07:06;;;;;;;10.65;5.00;;;;;;;15.24;100.00;99759.87;1516822;93;21651;-75
2022/06/06 01:09:34;;;;;;;8.98;5.20;;;;;;;15.20;100.00;99764.06;1516380;94;21112;-75
2022/06/06 01:12:06;;;;;;;15.60;6.40;;;;;;;15.16;100.00;99760.09;1498062;95;21084;-75
2022/06/06 01:14:37;;;;;;;11.00;5.78;;;;;;;15.12;100.00;99760.17;1522482;93;21238;-76
2022/06/06 01:17:24;;;;;;;14.68;6.72;;;;;;;15.09;100.00;99760.61;1454525;99;21162;-76
2022/06/06 01:20:18;;;;;;;11.18;5.90;;;;;;;15.05;100.00;99756.59;1454687;99;21169;-75
2022/06/06 01:23:02;;;;;;;8.33;4.72;;;;;;;15.00;100.00;99759.97;1454808;97;21126;-75
2022/06/06 01:25:47;;;;;;;10.30;4.80;;;;;;;14.95;100.00;99755.66;1465822;97;21124;-74
2022/06/06 01:28:46;;;;;;;8.10;5.30;;;;;;;14.92;100.00;99750.09;1475637;97;21677;-73
2022/06/06 01:31:36;;;;;;;11.95;5.33;;;;;;;14.90;100.00;99755.44;1475467;96;21147;-76
2022/06/06 01:34:06;;;;;;;24.12;10.82;;;;;;;14.85;100.00;99751.13;1419523;100;21170;-75
2022/06/06 01:36:35;;;;;;;41.70;21.15;;;;;;;14.81;100.00;99753.42;1419356;100;21258;-74
2022/06/06 01:39:05;;;;;;;24.72;11.30;;;;;;;14.79;100.00;99750.91;1416931;100;21097;-74
2022/06/06 01:42:03;;;;;;;11.55;6.20;;;;;;;14.77;100.00;99753.00;1398782;102;21103;-75
2022/06/06 01:44:46;;;;;;;13.83;6.25;;;;;;;14.74;100.00;99750.68;1402146;101;21229;-74
2022/06/06 01:47:20;;;;;;;12.73;6.10;;;;;;;14.71;100.00;99753.80;1409235;101;21168;-76
2022/06/06 01:49:47;;;;;;;11.73;5.50;;;;;;;14.68;100.00;99751.52;1417668;101;21193;-74
2022/06/06 01:52:15;;;;;;;6.62;4.78;;;;;;;14.65;100.00;99747.00;1452675;98;21135;-74
2022/06/06 01:54:42;;;;;;;9.53;5.50;;;;;;;14.66;100.00;99747.30;1462441;98;21140;-75
2022/06/06 01:57:13;;;;;;;20.05;8.03;;;;;;;14.65;100.00;99741.56;1462521;98;21123;-75
2022/06/06 01:59:41;;;;;;;12.55;5.97;;;;;;;14.64;100.00;99742.06;1460597;96;21096;-75
2022/06/06 02:02:09;;;;;;;12.03;5.78;;;;;;;14.64;100.00;99733.90;1458946;98;21133;-76
2022/06/06 02:04:35;;;;;;;14.38;6.17;;;;;;;14.64;100.00;99736.62;1459014;98;21148;-75
2022/06/06 02:07:03;;;;;;;9.13;5.10;;;;;;;14.64;100.00;99743.95;1458953;98;21084;-76
2022/06/06 02:09:31;;;;;;;9.10;5.05;;;;;;;14.65;100.00;99747.00;1458609;98;21191;-76
2022/06/06 02:12:00;;;;;;;9.20;4.72;;;;;;;14.64;100.00;99746.14;1459215;98;21116;-76
2022/06/06 02:14:27;;;;;;;9.48;3.87;;;;;;;14.67;100.00;99750.35;1487965;96;21095;-75
2022/06/06 02:16:54;;;;;;;6.72;3.67;;;;;;;14.67;100.00;99750.35;1524065;94;21618;-76
2022/06/06 02:19:21;;;;;;;4.37;3.47;;;;;;;14.66;100.00;99757.69;1527356;94;21101;-76
2022/06/06 02:21:48;;;;;;;8.68;4.22;;;;;;;14.67;100.00;99763.96;1655135;83;21063;-73
2022/06/06 02:24:15;;;;;;;13.90;4.47;;;;;;;14.66;100.00;99767.22;1720705;82;21559;-76
2022/06/06 02:26:43;;;;;;;20.02;7.83;;;;;;;14.66;100.00;99767.22;1720557;83;21054;-74
2022/06/06 02:29:10;;;;;;;60.70;28.02;;;;;;;14.68;100.00;99769.20;1720713;83;21065;-74
2022/06/06 02:31:38;;;;;;;38.02;17.75;;;;;;;14.66;100.00;99771.30;1720552;82;21509;-74
2022/06/06 02:34:06;;;;;;;21.82;9.53;;;;;;;14.65;100.00;99770.13;1720937;83;21011;-75
2022/06/06 02:36:33;;;;;;;15.43;6.55;;;;;;;14.66;100.00;99775.88;1720495;83;21118;-74
2022/06/06 02:39:00;;;;;;;11.80;5.67;;;;;;;14.66;100.00;99771.30;1722555;82;21025;-74
2022/06/06 02:41:28;;;;;;;12.60;6.37;;;;;;;14.69;100.00;99765.42;1725424;83;21046;-73
2022/06/06 02:43:56;;;;;;;47.93;23.47;;;;;;;14.71;100.00;99762.50;1725057;83;21034;-76
2022/06/06 02:46:23;;;;;;;35.65;18.27;;;;;;;14.71;100.00;99760.61;1724106;83;21492;-74
2022/06/06 02:48:50;;;;;;;35.58;18.05;;;;;;;14.72;100.00;99755.49;1714268;84;21069;-75
2022/06/06 02:51:17;;;;;;;33.78;15.58;;;;;;;14.74;100.00;99760.73;1714134;82;21070;-75
2022/06/06 02:53:44;;;;;;;17.85;9.10;;;;;;;14.76;100.00;99760.83;1714284;84;21013;-76
2022/06/06 02:56:11;;;;;;;14.78;7.72;;;;;;;14.77;100.00;99759.80;1714676;83;21440;-80
2022/06/06 02:58:38;;;;;;;27.58;12.43;;;;;;;14.85;100.00;99768.82;1714967;83;21041;-79
2022/06/06 03:01:08;;;;;;;107.70;56.28;;;;;;;14.88;100.00;99766.52;1714990;84;21022;-79
2022/06/06 03:03:37;;;;;;;52.00;28.30;;;;;;;14.90;100.00;99766.32;1714737;83;21097;-79
2022/06/06 03:06:23;;;;;;;43.50;21.68;;;;;;;14.93;100.00;99759.11;1714900;83;21062;-79
2022/06/06 03:09:15;;;;;;;31.15;14.80;;;;;;;14.96;100.00;99751.88;1715323;83;21037;-80
2022/06/06 03:12:01;;;;;;;46.37;22.42;;;;;;;14.99;100.00;99756.91;1715110;83;21061;-80
2022/06/06 03:14:45;;;;;;;33.08;16.75;;;;;;;15.03;100.00;99754.08;1711831;84;20990;-80
2022/06/06 03:20:48;;;;;;;20.20;8.60;;;;;;;15.13;100.00;99764.05;1708020;84;20995;-80
2022/06/06 03:23:59;;;;;;;19.05;9.10;;;;;;;15.21;100.00;99754.86;1707829;84;21039;-80
2022/06/06 03:26:46;;;;;;;16.77;8.05;;;;;;;15.31;100.00;99757.16;1707899;84;21034;-80
2022/06/06 03:29:38;;;;;;;15.15;7.80;;;;;;;15.39;100.00;99758.32;1704320;84;21031;-81
2022/06/06 03:32:34;;;;;;;15.95;7.87;;;;;;;15.48;100.00;99765.23;1677809;84;21595;-80
2022/06/06 03:35:27;;;;;;;13.30;6.58;;;;;;;15.59;100.00;99777.38;1605244;89;21570;-80
2022/06/06 03:38:08;;;;;;;57.08;29.95;;;;;;;15.70;100.00;99774.55;1581257;91;21068;-80
2022/06/06 03:41:14;;;;;;;31.00;15.83;;;;;;;15.83;100.00;99777.80;1597307;90;21126;-80
2022/06/06 03:44:02;;;;;;;16.17;8.70;;;;;;;15.92;100.00;99778.74;1597220;90;21034;-81
2022/06/06 03:46:35;;;;;;;16.93;7.78;;;;;;;16.05;100.00;99783.86;1597182;90;21061;-80
2022/06/06 03:49:40;;;;;;;24.57;11.50;;;;;;;16.14;100.00;99796.21;1598706;88;21587;-80
2022/06/06 03:52:27;;;;;;;32.70;15.90;;;;;;;16.21;100.00;99798.93;1580764;91;21098;-80
2022/06/06 03:55:14;;;;;;;26.80;12.30;;;;;;;16.33;100.00;99804.04;1584746;90;21032;-79
2022/06/06 03:57:42;;;;;;;39.38;20.02;;;;;;;16.41;100.00;99805.14;1511772;95;21180;-79
2022/06/06 04:00:12;;;;;;;28.15;13.62;;;;;;;16.53;100.00;99807.23;1510120;95;21077;-80
2022/06/06 04:02:42;;;;;;;27.00;13.53;;;;;;;16.61;100.00;99813.78;1508560;95;21618;-80
2022/06/06 04:05:13;;;;;;;30.77;12.03;;;;;;;16.69;100.00;99808.92;1509417;95;21117;-80
2022/06/06 04:07:40;;;;;;;27.87;11.55;;;;;;;16.81;100.00;99813.72;1515312;89;21049;-81
2022/06/06 04:10:07;;;;;;;18.40;8.23;;;;;;;16.93;100.00;99816.61;1557077;91;21065;-80
2022/06/06 04:13:02;;;;;;;15.80;8.00;;;;;;;16.98;100.00;99815.44;1602876;88;21092;-80
2022/06/06 04:15:54;;;;;;;21.90;9.98;;;;;;;17.10;100.00;99814.22;1639016;87;21077;-80
2022/06/06 04:18:44;;;;;;;24.67;11.90;;;;;;;17.25;100.00;99826.52;1620567;87;21123;-81
2022/06/06 04:21:34;;;;;;;21.70;10.38;;;;;;;17.43;100.00;99827.67;1620636;89;21044;-80
2022/06/06 04:24:21;;;;;;;16.30;7.33;;;;;;;17.67;100.00;99837.47;1620491;89;21530;-80
2022/06/06 04:27:14;;;;;;;13.98;6.08;;;;;;;17.91;100.00;99841.30;1586419;90;21620;-80
2022/06/06 04:30:14;;;;;;;8.78;5.70;;;;;;;18.16;100.00;99856.33;1586456;90;21093;-79
2022/06/06 04:33:02;;;;;;;12.75;6.30;;;;;;;18.40;100.00;99865.03;1586484;90;21138;-80
2022/06/06 04:36:07;;;;;;;15.65;8.03;;;;;;;18.63;100.00;99858.55;1600250;89;21053;-81
2022/06/06 04:39:11;;;;;;;18.45;8.03;;;;;;;18.81;100.00;99874.17;1606564;89;21077;-81
2022/06/06 04:42:07;;;;;;;12.50;6.70;;;;;;;18.89;100.00;99878.84;1561952;91;21082;-80
2022/06/06 04:44:55;;;;;;;11.38;6.35;;;;;;;18.95;100.00;99886.13;1561564;92;21078;-81
2022/06/06 04:47:30;;;;;;;15.63;7.05;;;;;;;18.94;100.00;99891.28;1562338;92;21041;-81
2022/06/06 04:49:57;;;;;;;27.52;13.00;;;;;;;19.00;100.00;99890.92;1548044;93;21200;-81
2022/06/06 04:52:24;;;;;;;16.42;7.67;;;;;;;19.10;100.00;99899.41;1548357;93;21096;-80
2022/06/06 04:54:51;;;;;;;12.80;6.40;;;;;;;19.16;100.00;99903.98;1552495;92;21076;-80
2022/06/06 04:57:19;;;;;;;12.60;6.37;;;;;;;19.19;100.00;99904.59;1564977;92;21177;-74
2022/06/06 04:59:46;;;;;;;10.13;5.83;;;;;;;19.28;100.00;99907.30;1543067;92;21141;-74
2022/06/06 05:02:15;;;;;;;21.02;9.65;;;;;;;19.39;100.00;99905.67;1562042;91;21121;-76
2022/06/06 05:04:42;;;;;;;16.07;8.08;;;;;;;19.51;100.00;99910.67;1590405;90;22395;-78
2022/06/06 05:07:31;;;;;;;13.85;7.62;;;;;;;19.59;100.00;99910.90;1600693;90;21140;-81
2022/06/06 05:10:24;;;;;;;16.70;9.33;;;;;;;19.62;100.00;99915.38;1591792;89;21037;-78
2022/06/06 05:13:19;;;;;;;18.80;7.58;;;;;;;19.69;100.00;99918.86;1580493;89;21089;-78
2022/06/06 05:16:10;;;;;;;23.50;14.70;;;;;;;19.78;100.00;99930.37;1583526;90;21041;-78
2022/06/06 05:18:51;;;;;;;9.85;4.22;;;;;;;19.87;100.00;99939.92;1571063;91;21110;-78
2022/06/06 05:22:00;;;;;;;10.08;4.50;;;;;;;19.95;100.00;99945.59;1584371;90;21052;-76
2022/06/06 05:24:41;;;;;;;11.25;4.10;;;;;;;20.06;100.00;99954.41;1585156;89;21013;-77
2022/06/06 05:27:26;;;;;;;41.35;16.85;;;;;;;20.25;100.00;99948.27;1587687;89;21168;-76
2022/06/06 05:30:14;;;;;;;19.57;6.78;;;;;;;20.36;100.00;99948.02;1586594;90;21120;-76
2022/06/06 05:33:21;;;;;;;26.27;8.30;;;;;;;20.65;100.00;99946.23;1587538;90;21076;-77
2022/06/06 05:35:53;;;;;;;72.95;27.70;;;;;;;20.86;100.00;99957.15;1587320;89;21101;-77
2022/06/06 05:38:35;;;;;;;36.30;14.87;;;;;;;21.00;100.00;99965.98;1585664;90;21103;-77
2022/06/06 05:41:18;;;;;;;67.22;26.73;;;;;;;21.02;100.00;99964.36;1600300;90;21126;-78
2022/06/06 05:43:56;;;;;;;56.63;19.32;;;;;;;21.11;100.00;99976.65;1600335;90;21078;-76
2022/06/06 05:46:59;;;;;;;13.35;5.00;;;;;;;21.09;100.00;99974.69;1622937;83;21132;-75
2022/06/06 05:50:09;;;;;;;13.98;6.17;;;;;;;21.26;100.00;99972.55;1724235;83;21071;-74
2022/06/06 05:53:21;;;;;;;15.53;5.47;;;;;;;21.65;100.00;99972.80;1725197;83;21091;-75
2022/06/06 05:56:18;;;;;;;31.70;11.40;;;;;;;22.06;100.00;99978.53;1725594;83;20963;-74
2022/06/06 05:59:15;;;;;;;42.38;28.92;;;;;;;22.42;100.00;99975.02;1728177;83;21488;-79
2022/06/06 06:02:00;;;;;;;20.37;7.50;;;;;;;22.67;100.00;99983.39;1605361;88;21064;-76
2022/06/06 06:04:45;;;;;;;24.65;16.20;;;;;;;22.92;100.00;99996.16;1603157;89;21157;-78
2022/06/06 06:07:24;;;;;;;21.10;7.15;;;;;;;23.05;100.00;100000.50;1612619;89;21160;-77
2022/06/06 06:10:29;;;;;;;15.03;4.87;;;;;;;23.05;100.00;100012.91;1614355;89;21172;-86
2022/06/06 06:13:25;;;;;;;22.60;7.00;;;;;;;23.07;100.00;100016.27;1614917;89;21057;-79
2022/06/06 06:15:57;;;;;;;30.57;10.08;;;;;;;23.12;100.00;100021.00;1614743;89;21136;-83
2022/06/06 06:18:53;;;;;;;12.33;3.92;;;;;;;22.94;100.00;100027.61;1595323;89;21111;-81
2022/06/06 06:21:29;;;;;;;15.00;4.70;;;;;;;22.78;100.00;100029.86;1614186;89;21022;-83
2022/06/06 06:24:04;;;;;;;8.18;3.62;;;;;;;22.66;100.00;100039.03;1516689;94;21077;-77
2022/06/06 06:26:33;;;;;;;16.07;5.30;;;;;;;22.83;100.00;100032.70;1526452;94;21145;-81
2022/06/06 06:29:06;;;;;;;23.67;12.15;;;;;;;23.09;100.00;100043.59;1526876;94;21077;-81
2022/06/06 06:32:08;;;;;;;18.45;7.78;;;;;;;23.33;100.00;100058.53;1523972;94;21567;-79
2022/06/06 06:35:02;;;;;;;11.50;5.90;;;;;;;23.40;100.00;100057.80;1525873;94;21917;-79
2022/06/06 06:37:51;;;;;;;93.20;44.88;;;;;;;23.47;100.00;100056.50;1524780;94;21133;-79
2022/06/06 06:40:44;;;;;;;18.75;8.23;;;;;;;23.57;100.00;100058.58;1575979;90;21070;-75
2022/06/06 06:43:37;;;;;;;7.33;3.70;;;;;;;23.81;100.00;100056.39;1586739;90;21783;-76
2022/06/06 06:46:27;;;;;;;6.78;3.85;;;;;;;24.02;100.00;100055.25;1534409;93;21141;-80
2022/06/06 06:49:02;;;;;;;17.07;7.20;;;;;;;24.13;100.00;100057.02;1536304;92;21274;-77
2022/06/06 06:51:55;;;;;;;12.75;4.35;;;;;;;24.34;100.00;100055.84;1536093;92;21177;-79
2022/06/06 06:54:33;;;;;;;28.23;8.60;;;;;;;24.54;100.00;100053.83;1532363;93;21160;-78
2022/06/06 06:57:49;;;;;;;19.23;6.12;;;;;;;24.80;100.00;100043.81;1508904;95;21110;-77
2022/06/06 07:00:21;;;;;;;14.25;4.60;;;;;;;25.11;100.00;100055.93;1506633;91;21122;-75
2022/06/06 07:09:27;;;;;;;106.72;45.12;;;;;;;25.18;100.00;100053.75;1549403;91;21118;-80
2022/06/06 07:12:09;;;;;;;9.35;4.10;;;;;;;25.38;100.00;100056.38;1548678;91;21085;-76
2022/06/06 07:15:16;;;;;;;30.65;9.68;;;;;;;25.58;100.00;100046.77;1559906;91;20992;-76
2022/06/06 07:17:51;;;;;;;10.63;3.60;;;;;;;26.03;100.00;100050.54;1555624;91;21093;-77
2022/06/06 07:20:19;;;;;;;12.88;4.47;;;;;;;26.39;100.00;100051.44;1515618;93;21061;-76
2022/06/06 07:23:00;;;;;;;13.70;5.03;;;;;;;26.60;100.00;100046.73;1538081;93;21681;-75
2022/06/06 07:25:28;;;;;;;22.37;8.15;;;;;;;26.81;97.87;100043.42;1476907;96;21060;-75
2022/06/06 07:27:55;;;;;;;13.15;4.90;;;;;;;26.67;91.92;100043.16;1496429;95;21092;-76
2022/06/06 07:30:22;;;;;;;6.83;2.60;;;;;;;26.51;95.79;100047.84;1468955;97;21643;-75
2022/06/06 07:33:28;;;;;;;35.33;14.25;;;;;;;26.77;96.31;100049.23;1461575;98;21142;-73
2022/06/06 07:36:07;;;;;;;21.55;8.03;;;;;;;26.90;94.37;100043.13;1457226;95;21091;-73
2022/06/06 07:39:04;;;;;;;15.23;5.95;;;;;;;26.75;87.76;100041.75;1513372;94;21213;-76
2022/06/06 07:41:56;;;;;;;32.63;10.80;;;;;;;26.50;85.02;100039.23;1469974;97;21683;-76
2022/06/06 07:45:05;;;;;;;48.83;22.55;;;;;;;26.37;89.98;100036.20;1500498;96;21623;-76
2022/06/06 07:48:24;;;;;;;74.40;38.38;;;;;;;26.38;89.19;100036.47;1518547;93;21554;-74
2022/06/06 07:51:00;;;;;;;87.72;43.63;;;;;;;26.39;86.12;100040.91;1527285;93;21135;-76
2022/06/06 07:54:01;;;;;;;132.22;81.90;;;;;;;26.49;85.53;100029.84;1527118;93;21031;-77
2022/06/06 07:56:52;;;;;;;52.98;25.17;;;;;;;26.63;82.50;100034.27;1528237;93;21103;-74
2022/06/06 07:59:56;;;;;;;58.10;26.27;;;;;;;26.59;82.78;100042.28;1508664;93;21102;-83
2022/06/06 08:03:02;;;;;;;52.17;22.87;;;;;;;26.52;81.53;100031.50;1511246;95;21110;-81
2022/06/06 08:05:47;;;;;;;18.73;4.95;;;;;;;26.61;88.48;100037.85;1506955;94;21090;-84
2022/06/06 08:08:41;;;;;;;51.25;20.32;;;;;;;26.97;85.28;100030.36;1492214;96;21149;-82
2022/06/06 08:12:00;;;;;;;83.92;34.15;;;;;;;26.98;66.67;100029.23;1487970;96;21096;-83
2022/06/06 08:14:58;;;;;;;30.10;14.93;;;;;;;26.64;73.02;100031.80;1507400;94;21043;-77
2022/06/06 08:17:41;;;;;;;19.40;5.95;;;;;;;26.71;82.87;100033.73;1497922;94;21108;-81
2022/06/06 08:20:13;;;;;;;42.48;17.35;;;;;;;27.04;78.48;100029.52;1495132;94;21573;-83
2022/06/06 08:22:42;;;;;;;21.42;7.78;;;;;;;27.11;72.92;100027.84;1542577;91;21697;-76
2022/06/06 08:25:12;;;;;;;9.15;3.25;;;;;;;27.02;67.60;100030.89;1540440;92;21570;-76
2022/06/06 08:27:46;;;;;;;12.18;5.03;;;;;;;27.03;66.89;100026.45;1559832;92;21044;-74
2022/06/06 08:30:15;;;;;;;32.50;6.37;;;;;;;27.14;71.47;100030.59;1555739;92;21077;-79
2022/06/06 08:32:42;;;;;;;11.83;3.70;;;;;;;27.26;76.96;100026.39;1555976;91;21147;-79
2022/06/06 08:35:10;;;;;;;14.25;4.20;;;;;;;27.64;79.56;100028.77;1555727;91;21092;-77
2022/06/06 08:38:10;;;;;;;8.45;2.95;;;;;;;28.07;71.46;100029.12;1553998;92;21065;-75
2022/06/06 08:41:12;;;;;;;26.25;8.95;;;;;;;28.05;62.57;100027.73;1552190;91;21050;-77
2022/06/06 08:44:12;;;;;;;22.77;6.78;;;;;;;27.76;61.33;100028.44;1604819;89;21631;-78
2022/06/06 08:47:16;;;;;;;8.18;2.50;;;;;;;27.60;57.41;100025.72;1633105;88;21077;-77
2022/06/06 08:53:16;;;;;;;23.02;10.03;;;;;;;27.57;65.10;100031.02;1630414;87;21547;-77
2022/06/06 08:56:14;;;;;;;8.30;3.77;;;;;;;27.93;61.86;100016.42;1630490;88;21013;-78
2022/06/06 08:59:04;;;;;;;32.67;13.78;;;;;;;27.95;64.92;100017.53;1631438;87;21106;-76
2022/06/06 09:02:05;;;;;;;18.90;6.20;;;;;;;28.33;60.23;100013.09;1578308;90;21119;-78
2022/06/06 09:05:15;;;;;;;13.38;4.50;;;;;;;28.37;56.66;100016.13;1632464;86;21199;-76
2022/06/06 09:08:21;;;;;;;14.15;4.97;;;;;;;28.14;56.75;100021.29;1587384;90;21572;-79
2022/06/06 09:11:04;;;;;;;4.42;2.60;;;;;;;27.99;60.36;100019.46;1587463;89;21061;-78
2022/06/06 09:14:09;;;;;;;10.23;3.50;;;;;;;28.11;63.96;100029.38;1572246;90;21126;-79
2022/06/06 09:17:04;;;;;;;10.82;2.75;;;;;;;28.17;64.04;100026.28;1577267;90;21061;-81
2022/06/06 09:23:07;;;;;;;7.33;3.33;;;;;;;28.01;59.93;100026.09;1542050;92;21068;-78
2022/06/06 09:26:01;;;;;;;6.58;3.27;;;;;;;27.83;69.34;100020.62;1500819;94;21245;-79
2022/06/06 09:29:07;;;;;;;26.30;12.78;;;;;;;27.98;68.56;100026.69;1520223;94;21105;-81
2022/06/06 09:32:00;;;;;;;19.20;8.45;;;;;;;27.64;64.38;100017.12;1467539;97;21242;-79
2022/06/06 09:34:45;;;;;;;7.85;3.50;;;;;;;27.31;65.72;100017.83;1466928;97;21148;-78
2022/06/06 09:37:53;;;;;;;11.08;4.20;;;;;;;27.56;68.83;100010.76;1458892;96;21114;-78
2022/06/06 09:40:57;;;;;;;10.70;3.95;;;;;;;27.83;64.20;100008.97;1456178;98;21062;-78
2022/06/06 09:44:05;;;;;;;7.20;3.63;;;;;;;27.91;62.88;100013.11;1476150;94;21308;-82
2022/06/06 09:47:15;;;;;;;3.17;1.87;;;;;;;28.16;63.24;100005.72;1507219;95;21074;-82
2022/06/06 09:49:50;;;;;;;9.68;3.10;;;;;;;28.42;61.66;100007.74;1480794;97;21123;-81
2022/06/06 09:52:55;;;;;;;9.70;3.55;;;;;;;28.39;59.24;99998.02;1505586;94;21137;-78
2022/06/06 09:59:14;;;;;;;12.40;5.05;;;;;;;28.56;47.90;99996.25;1475118;97;21589;-73
2022/06/06 10:02:05;;;;;;;44.58;5.78;;;;;;;28.34;50.51;99992.50;1472327;97;21280;-75
2022/06/06 10:05:01;;;;;;;14.10;4.05;;;;;;;28.62;51.74;99983.69;1415115;101;21088;-75
2022/06/06 10:08:10;;;;;;;8.93;3.40;;;;;;;29.01;53.57;99990.50;1415275;101;21407;-76
2022/06/06 10:11:01;;;;;;;3.52;2.22;;;;;;;29.51;54.57;99991.02;1442908;99;21170;-79
2022/06/06 10:14:01;;;;;;;4.47;1.60;;;;;;;30.19;52.67;99994.55;1453475;96;21173;-80
2022/06/06 10:17:03;;;;;;;5.78;2.05;;;;;;;30.72;50.34;99987.81;1412968;101;21159;-78
2022/06/06 10:19:53;;;;;;;5.78;2.25;;;;;;;31.13;47.19;99985.66;1465568;96;21111;-81
2022/06/06 10:22:59;;;;;;;3.10;2.08;;;;;;;31.28;43.38;99985.08;1497125;96;21044;-78
2022/06/06 10:26:01;;;;;;;8.18;4.00;;;;;;;31.18;42.52;99978.58;1546945;92;21127;-81
2022/06/06 10:28:47;;;;;;;34.55;23.40;;;;;;;30.80;40.06;99965.34;1573990;90;21022;-84
2022/06/06 10:31:22;;;;;;;6.08;3.20;;;;;;;30.37;42.43;99971.15;1554313;92;21166;-84
2022/06/06 10:34:06;;;;;;;7.60;3.33;;;;;;;30.52;44.81;99961.67;1577428;89;21012;-84
2022/06/06 10:36:42;;;;;;;15.63;7.70;;;;;;;30.70;39.87;99959.94;1633478;88;21060;-82
2022/06/06 10:39:33;;;;;;;29.37;16.62;;;;;;;30.29;38.57;99967.05;1639730;88;21017;-80
2022/06/06 10:42:22;;;;;;;13.50;5.80;;;;;;;29.83;40.29;99967.20;1638898;88;21053;-81
2022/06/06 10:45:20;;;;;;;21.05;8.80;;;;;;;29.83;43.46;99964.98;1649129;86;21017;-82
2022/06/06 10:48:15;;;;;;;7.95;3.50;;;;;;;29.84;41.02;99961.09;1630206;86;21136;-82
2022/06/06 10:54:32;;;;;;;15.13;3.67;;;;;;;29.41;43.37;99969.44;1576943;90;20389;-76
2022/06/06 10:57:08;;;;;;;3.70;2.52;;;;;;;29.39;46.12;99971.70;1605563;88;21034;-76
2022/06/06 11:00:16;;;;;;;4.72;2.20;;;;;;;29.81;48.18;99970.86;1602676;89;21086;-75
2022/06/06 11:03:12;;;;;;;16.32;7.78;;;;;;;30.25;48.85;99952.06;1633118;87;21217;-74
2022/06/06 11:05:51;;;;;;;26.00;11.73;;;;;;;30.64;47.66;99964.22;1608518;87;21100;-73
2022/06/06 11:08:41;;;;;;;13.40;4.78;;;;;;;30.70;46.35;99956.58;1604936;89;21551;-76
2022/06/06 11:11:34;;;;;;;35.75;18.05;;;;;;;30.69;46.72;99954.09;1571926;91;21127;-74
2022/06/06 11:14:24;;;;;;;14.55;7.75;;;;;;;30.73;43.53;99954.57;1539993;93;21221;-76
2022/06/06 11:17:26;;;;;;;8.00;3.87;;;;;;;30.10;40.75;99948.95;1518248;94;21080;-74
2022/06/06 11:20:26;;;;;;;20.65;3.00;;;;;;;29.81;44.95;99956.93;1546754;93;21035;-74
2022/06/06 11:23:24;;;;;;;7.87;2.35;;;;;;;30.09;45.03;99955.67;1595392;88;21235;-75
2022/06/06 11:26:25;;;;;;;3.87;2.55;;;;;;;30.37;46.22;99950.23;1588337;90;21114;-75
2022/06/06 11:29:07;;;;;;;4.78;2.27;;;;;;;30.45;45.76;99937.77;1600029;90;21097;-73
2022/06/06 11:32:02;;;;;;;7.50;2.45;;;;;;;30.56;45.78;99924.49;1541316;93;21148;-75
2022/06/06 11:34:53;;;;;;;9.03;2.50;;;;;;;30.66;44.69;99934.05;1540699;93;21123;-75
2022/06/06 11:37:34;;;;;;;4.62;2.77;;;;;;;30.27;42.32;99935.27;1541011;93;21701;-74
2022/06/06 11:40:22;;;;;;;5.20;2.00;;;;;;;29.83;43.32;99931.55;1538767;93;21141;-73
2022/06/06 11:43:19;;;;;;;12.60;6.03;;;;;;;29.59;45.91;99930.20;1520842;94;21269;-75
2022/06/06 11:46:26;;;;;;;7.30;2.98;;;;;;;29.62;47.05;99931.81;1521584;94;21617;-73
2022/06/06 11:49:29;;;;;;;8.20;4.17;;;;;;;29.73;45.48;99932.52;1509648;93;21153;-73
2022/06/06 11:52:47;;;;;;;9.18;2.80;;;;;;;29.85;43.86;99925.11;1509656;95;21136;-73
2022/06/06 11:55:37;;;;;;;20.43;3.70;;;;;;;29.95;44.92;99919.38;1507626;95;21110;-73
2022/06/06 11:58:12;;;;;;;182.30;92.90;;;;;;;30.11;44.89;99918.55;1495729;96;21089;-76
2022/06/06 12:01:03;;;;;;;23.27;8.98;;;;;;;30.00;41.68;99925.45;1496217;96;21135;-80
2022/06/06 12:03:51;;;;;;;10.23;3.90;;;;;;;29.77;44.59;99921.62;1508873;94;21142;-80
2022/06/06 12:06:47;;;;;;;14.75;4.75;;;;;;;29.83;45.33;99920.41;1536085;91;21058;-79
2022/06/06 12:09:22;;;;;;;4.37;2.92;;;;;;;29.87;41.93;99927.87;1550330;92;21602;-76
2022/06/06 12:12:06;;;;;;;21.45;7.92;;;;;;;29.70;42.40;99920.00;1553275;92;21049;-79
2022/06/06 12:15:26;;;;;;;5.78;2.70;;;;;;;29.75;42.53;99921.05;1552962;91;21109;-79
2022/06/06 12:18:29;;;;;;;24.82;9.30;;;;;;;29.88;44.63;99917.54;1507618;95;21367;-77
2022/06/06 12:21:23;;;;;;;15.28;4.45;;;;;;;30.05;43.21;99921.19;1527945;92;21088;-75
2022/06/06 12:24:40;;;;;;;150.03;75.65;;;;;;;30.15;45.57;99926.56;1508568;95;21123;-76
2022/06/06 12:27:33;;;;;;;24.55;9.23;;;;;;;29.95;42.23;99926.91;1508409;95;21201;-77
2022/06/06 12:30:09;;;;;;;10.63;2.70;;;;;;;29.81;45.06;99917.09;1507944;94;21170;-73
2022/06/06 12:33:02;;;;;;;37.95;14.83;;;;;;;29.99;46.02;99914.84;1507772;95;21134;-75
2022/06/06 12:35:43;;;;;;;28.70;9.80;;;;;;;30.20;45.06;99920.08;1546085;91;21100;-75
2022/06/06 12:38:21;;;;;;;23.10;8.90;;;;;;;30.29;43.89;99914.88;1569719;89;21065;-77
2022/06/06 12:41:13;;;;;;;23.95;6.70;;;;;;;30.02;42.20;99928.17;1569570;91;21118;-78
2022/06/06 12:44:05;;;;;;;9.80;3.45;;;;;;;29.89;43.79;99917.81;1569479;89;22010;-76
2022/06/06 12:47:17;;;;;;;28.90;3.65;;;;;;;29.75;44.20;99923.83;1531432;92;21195;-81
2022/06/06 12:50:19;;;;;;;13.00;4.12;;;;;;;29.89;47.89;99914.45;1578652;90;21042;-83
2022/06/06 12:53:30;;;;;;;54.83;31.35;;;;;;;30.20;45.62;99915.90;1580855;87;21109;-79
2022/06/06 12:56:23;;;;;;;36.20;19.25;;;;;;;30.18;42.54;99913.41;1578768;91;21147;-80
2022/06/06 12:59:04;;;;;;;29.52;14.50;;;;;;;29.87;40.43;99916.72;1596011;90;21118;-76
2022/06/06 13:02:10;;;;;;;20.75;8.18;;;;;;;29.33;41.75;99923.61;1573006;90;21083;-76
2022/06/06 13:04:58;;;;;;;24.18;11.03;;;;;;;28.86;43.14;99919.16;1644262;87;21635;-76
2022/06/06 13:07:30;;;;;;;47.05;25.43;;;;;;;28.55;43.72;99917.27;1654360;87;21077;-75